createdAt,value
2022-09-01T00:00:03.370Z,5.80
2022-09-01T00:02:31.646Z,5.57
2022-09-01T00:04:59.681Z,6.25
2022-09-01T00:07:31.130Z,5.60
2022-09-01T00:10:00.224Z,6.43
2022-09-01T00:12:28.250Z,6.22
2022-09-01T00:14:56.482Z,6.25
2022-09-01T00:17:24.271Z,5.95
2022-09-01T00:19:52.095Z,6.32
2022-09-01T00:22:19.859Z,6.03
2022-09-01T00:24:47.730Z,6.60
2022-09-01T00:27:15.431Z,6.75
2022-09-01T00:29:44.055Z,6.32
2022-09-01T00:32:12.697Z,5.90
2022-09-01T00:34:40.665Z,6.75
2022-09-01T00:37:08.671Z,6.10
2022-09-01T00:39:36.462Z,7.07
2022-09-01T00:42:04.723Z,6.35
2022-09-01T00:44:32.477Z,7.18
2022-09-01T00:47:00.714Z,6.47
2022-09-01T00:49:35.315Z,6.20
2022-09-01T00:52:09.906Z,5.87
2022-09-01T00:54:41.088Z,6.07
2022-09-01T00:57:09.509Z,6.35
2022-09-01T00:59:37.588Z,6.70
2022-09-01T01:02:05.541Z,6.37
2022-09-01T01:04:33.373Z,6.12
2022-09-01T01:07:03.897Z,6.53
2022-09-01T01:09:34.418Z,5.62
2022-09-01T01:12:02.400Z,6.68
2022-09-01T01:14:33.007Z,6.87
2022-09-01T01:17:01.980Z,6.65
2022-09-01T01:20:01.627Z,8.60
2022-09-01T01:22:52.806Z,8.23
2022-09-01T01:25:23.151Z,8.23
2022-09-01T01:27:51.360Z,8.45
2022-09-01T01:30:20.157Z,8.60
2022-09-01T01:32:48.667Z,9.52
2022-09-01T01:35:17.460Z,9.55
2022-09-01T01:37:47.648Z,9.88
2022-09-01T01:40:19.243Z,9.80
2022-09-01T01:42:47.866Z,9.55
2022-09-01T01:45:18.337Z,9.82
2022-09-01T01:47:52.788Z,10.57
2022-09-01T01:50:25.162Z,11.48
2022-09-01T01:52:58.179Z,11.38
2022-09-01T01:55:30.005Z,12.32
2022-09-01T01:57:58.695Z,12.73
2022-09-01T02:00:30.128Z,14.35
2022-09-01T02:02:58.806Z,13.73
2022-09-01T02:05:28.809Z,13.27
2022-09-01T02:07:57.746Z,19.05
2022-09-01T02:10:31.996Z,16.10
2022-09-01T02:13:08.950Z,14.23
2022-09-01T02:15:45.478Z,14.57
2022-09-01T02:18:20.515Z,17.15
2022-09-01T02:20:50.446Z,16.08
2022-09-01T02:23:21.332Z,14.57
2022-09-01T02:26:14.436Z,16.20
2022-09-01T02:28:38.252Z,14.35
2022-09-01T02:31:06.358Z,13.55
2022-09-01T02:33:34.219Z,13.10
2022-09-01T02:36:03.905Z,12.88
2022-09-01T02:38:34.907Z,13.77
2022-09-01T02:41:03.454Z,14.63
2022-09-01T02:43:32.801Z,13.15
2022-09-01T02:46:01.859Z,12.77
2022-09-01T02:48:33.994Z,12.98
2022-09-01T02:51:03.207Z,12.30
2022-09-01T02:53:31.951Z,12.48
2022-09-01T02:56:00.568Z,11.82
2022-09-01T02:58:28.727Z,11.85
2022-09-01T03:00:57.593Z,12.13
2022-09-01T03:03:25.786Z,12.35
2022-09-01T03:05:57.364Z,11.57
2022-09-01T03:08:25.725Z,11.70
2022-09-01T03:10:54.964Z,12.50
2022-09-01T03:13:24.871Z,12.45
2022-09-01T03:15:52.606Z,12.82
2022-09-01T03:18:20.598Z,12.70
2022-09-01T03:20:48.610Z,12.95
2022-09-01T03:23:19.265Z,11.52
2022-09-01T03:25:48.436Z,10.43
2022-09-01T03:28:16.424Z,9.50
2022-09-01T03:30:48.640Z,9.55
2022-09-01T03:33:18.138Z,9.40
2022-09-01T03:35:46.037Z,9.30
2022-09-01T03:38:13.972Z,8.68
2022-09-01T03:40:41.797Z,8.40
2022-09-01T03:43:15.181Z,8.65
2022-09-01T03:45:43.032Z,8.15
2022-09-01T03:48:11.048Z,9.57
2022-09-01T03:50:42.309Z,9.30
2022-09-01T03:53:10.162Z,8.25
2022-09-01T03:55:39.277Z,8.63
2022-09-01T03:58:09.332Z,7.30
2022-09-01T04:00:40.725Z,7.65
2022-09-01T04:03:20.794Z,8.13
2022-09-01T04:05:57.043Z,7.03
2022-09-01T04:08:32.652Z,6.97
2022-09-01T04:11:03.950Z,7.68
2022-09-01T04:13:42.072Z,6.50
2022-09-01T04:16:41.000Z,6.55
2022-09-01T04:19:17.040Z,6.57
2022-09-01T04:21:45.096Z,6.45
2022-09-01T04:24:15.216Z,7.28
2022-09-01T04:26:43.655Z,7.20
2022-09-01T04:29:12.841Z,6.68
2022-09-01T04:31:41.905Z,6.60
2022-09-01T04:34:14.265Z,6.47
2022-09-01T04:36:43.380Z,6.57
2022-09-01T04:39:11.853Z,6.25
2022-09-01T04:41:43.710Z,6.87
2022-09-01T04:44:11.486Z,6.72
2022-09-01T04:46:43.442Z,6.78
2022-09-01T04:49:13.015Z,6.47
2022-09-01T04:51:42.248Z,6.37
2022-09-01T04:54:15.998Z,5.97
2022-09-01T04:56:45.657Z,6.45
2022-09-01T04:59:14.228Z,6.40
2022-09-01T05:01:45.003Z,5.95
2022-09-01T05:04:17.894Z,5.57
2022-09-01T05:06:48.104Z,6.12
2022-09-01T05:09:18.585Z,6.57
2022-09-01T05:11:48.306Z,5.97
2022-09-01T05:14:19.580Z,5.75
2022-09-01T05:16:47.715Z,5.50
2022-09-01T05:19:16.810Z,5.97
2022-09-01T05:21:46.908Z,6.30
2022-09-01T05:24:16.491Z,4.85
2022-09-01T05:26:44.839Z,4.57
2022-09-01T05:29:14.820Z,4.32
2022-09-01T05:31:43.113Z,5.18
2022-09-01T05:34:11.003Z,5.43
2022-09-01T05:36:45.899Z,5.18
2022-09-01T05:39:13.803Z,5.00
2022-09-01T05:41:42.049Z,5.12
2022-09-01T05:44:10.012Z,5.00
2022-09-01T05:46:38.847Z,5.43
2022-09-01T05:49:08.198Z,5.28
2022-09-01T05:51:46.068Z,5.05
2022-09-01T05:54:19.755Z,4.95
2022-09-01T05:56:48.346Z,5.35
2022-09-01T05:59:24.796Z,6.12
2022-09-01T06:01:54.690Z,5.25
2022-09-01T06:04:23.871Z,5.55
2022-09-01T06:07:06.108Z,5.57
2022-09-01T06:09:39.316Z,5.20
2022-09-01T06:12:07.805Z,5.10
2022-09-01T06:14:35.676Z,4.80
2022-09-01T06:17:05.124Z,4.53
2022-09-01T06:19:37.619Z,4.90
2022-09-01T06:22:06.040Z,6.00
2022-09-01T06:24:33.876Z,5.22
2022-09-01T06:27:02.285Z,5.82
2022-09-01T06:29:32.353Z,6.05
2022-09-01T06:32:03.393Z,5.50
2022-09-01T06:34:31.255Z,5.20
2022-09-01T06:36:59.077Z,5.82
2022-09-01T06:39:27.661Z,5.75
2022-09-01T06:41:55.915Z,5.32
2022-09-01T06:44:24.188Z,5.47
2022-09-01T06:46:52.853Z,5.07
2022-09-01T06:49:22.574Z,5.35
2022-09-01T06:51:52.836Z,5.15
2022-09-01T06:54:21.320Z,5.12
2022-09-01T06:56:51.840Z,5.10
2022-09-01T06:59:21.355Z,5.18
2022-09-01T07:01:50.190Z,5.07
2022-09-01T07:04:21.260Z,4.87
2022-09-01T07:07:53.254Z,4.55
2022-09-01T07:09:47.826Z,4.72
2022-09-01T07:12:28.268Z,4.68
2022-09-01T07:17:51.182Z,4.85
2022-09-01T07:20:24.000Z,5.15
2022-09-01T07:23:08.142Z,4.30
2022-09-01T07:28:36.775Z,4.15
2022-09-01T07:39:51.763Z,4.07
2022-09-01T07:45:28.319Z,3.80
2022-09-01T07:47:56.901Z,3.67
2022-09-01T07:53:29.268Z,4.12
2022-09-01T07:55:57.389Z,4.32
2022-09-01T07:58:27.259Z,3.40
2022-09-01T08:00:55.683Z,4.10
2022-09-01T08:03:25.238Z,3.97
2022-09-01T08:05:58.678Z,3.40
2022-09-01T08:08:29.271Z,3.53
2022-09-01T08:11:04.921Z,3.12
2022-09-01T08:13:38.836Z,3.25
2022-09-01T08:16:16.859Z,3.22
2022-09-01T08:18:49.815Z,3.22
2022-09-01T08:21:18.439Z,2.60
2022-09-01T08:23:46.322Z,2.92
2022-09-01T08:26:15.600Z,3.00
2022-09-01T08:28:54.393Z,2.90
2022-09-01T08:31:23.097Z,2.80
2022-09-01T08:33:51.225Z,2.80
2022-09-01T08:36:23.720Z,2.95
2022-09-01T08:38:53.007Z,2.92
2022-09-01T08:41:51.559Z,2.83
2022-09-01T08:44:31.545Z,2.47
2022-09-01T08:47:03.839Z,3.15
2022-09-01T08:49:42.604Z,2.60
2022-09-01T08:52:29.050Z,2.67
2022-09-01T08:54:58.819Z,3.10
2022-09-01T08:57:40.768Z,2.70
2022-09-01T09:00:14.279Z,2.85
2022-09-01T09:03:01.283Z,2.80
2022-09-01T09:05:50.019Z,2.60
2022-09-01T09:08:53.457Z,2.67
2022-09-01T09:11:33.229Z,2.62
2022-09-01T09:14:00.870Z,2.58
2022-09-01T09:16:33.922Z,2.37
2022-09-01T09:19:25.049Z,2.10
2022-09-01T09:21:54.307Z,2.47
2022-09-01T09:24:48.280Z,2.55
2022-09-01T09:27:28.210Z,2.15
2022-09-01T09:30:08.326Z,2.47
2022-09-01T09:35:52.922Z,2.85
2022-09-01T09:38:30.143Z,3.00
2022-09-01T09:41:18.788Z,2.75
2022-09-01T09:44:11.302Z,2.55
2022-09-01T09:46:40.573Z,2.30
2022-09-01T09:49:36.553Z,2.65
2022-09-01T09:52:11.265Z,2.42
2022-09-01T09:54:41.049Z,2.62
2022-09-01T09:57:13.820Z,2.72
2022-09-01T10:00:04.852Z,2.53
2022-09-01T10:02:35.506Z,2.50
2022-09-01T10:05:22.109Z,3.00
2022-09-01T10:07:50.175Z,2.62
2022-09-01T10:10:31.567Z,3.20
2022-09-01T10:12:59.770Z,2.62
2022-09-01T10:15:30.172Z,2.90
2022-09-01T10:21:33.073Z,2.92
2022-09-01T10:24:20.287Z,3.12
2022-09-01T10:26:50.807Z,3.03
2022-09-01T10:29:48.987Z,3.40
2022-09-01T10:32:38.622Z,3.08
2022-09-01T10:35:25.610Z,2.62
2022-09-01T10:37:53.620Z,2.58
2022-09-01T10:40:43.485Z,2.47
2022-09-01T10:43:37.838Z,3.03
2022-09-01T10:46:38.770Z,2.65
2022-09-01T10:49:29.715Z,2.65
2022-09-01T10:52:03.183Z,3.22
2022-09-01T10:54:50.885Z,2.80
2022-09-01T10:57:28.000Z,2.78
2022-09-01T10:59:59.087Z,2.90
2022-09-01T11:02:28.817Z,2.70
2022-09-01T11:05:02.609Z,2.58
2022-09-01T11:07:58.108Z,2.40
2022-09-01T11:10:33.623Z,3.00
2022-09-01T11:13:26.168Z,2.72
2022-09-01T11:15:54.067Z,2.70
2022-09-01T11:18:30.562Z,2.70
2022-09-01T11:21:27.486Z,2.50
2022-09-01T11:24:39.378Z,2.90
2022-09-01T11:27:11.909Z,3.10
2022-09-01T11:30:03.954Z,2.70
2022-09-01T11:32:36.948Z,2.15
2022-09-01T11:35:06.682Z,2.55
2022-09-01T11:37:34.604Z,2.25
2022-09-01T11:40:03.505Z,2.80
2022-09-01T11:42:35.827Z,2.40
2022-09-01T11:45:06.626Z,2.60
2022-09-01T11:47:45.265Z,2.97
2022-09-01T11:50:31.087Z,2.75
2022-09-01T11:53:05.554Z,2.22
2022-09-01T11:55:34.712Z,2.42
2022-09-01T11:58:02.505Z,2.50
2022-09-01T12:00:39.555Z,2.70
2022-09-01T12:03:21.029Z,2.33
2022-09-01T12:05:51.729Z,2.70
2022-09-01T12:08:23.970Z,2.28
2022-09-01T12:10:52.517Z,2.40
2022-09-01T12:13:23.083Z,2.60
2022-09-01T12:16:21.641Z,2.10
2022-09-01T12:18:52.524Z,2.50
2022-09-01T12:21:28.143Z,2.37
2022-09-01T12:23:56.545Z,2.60
2022-09-01T12:26:28.786Z,2.28
2022-09-01T12:28:56.566Z,2.05
2022-09-01T12:31:25.465Z,2.50
2022-09-01T12:33:53.986Z,2.20
2022-09-01T12:36:29.273Z,2.15
2022-09-01T12:39:18.922Z,2.15
2022-09-01T12:41:48.594Z,1.98
2022-09-01T12:44:34.342Z,2.30
2022-09-01T12:47:10.660Z,2.30
2022-09-01T12:49:50.828Z,1.95
2022-09-01T12:52:28.625Z,2.17
2022-09-01T12:54:59.459Z,2.30
2022-09-01T12:57:32.537Z,2.25
2022-09-01T13:00:27.542Z,2.10
2022-09-01T13:02:58.399Z,2.05
2022-09-01T13:05:41.587Z,2.60
2022-09-01T13:08:14.502Z,1.80
2022-09-01T13:10:49.950Z,2.08
2022-09-01T13:13:18.087Z,1.77
2022-09-01T13:15:49.231Z,2.00
2022-09-01T13:18:18.305Z,1.60
2022-09-01T13:20:46.960Z,1.90
2022-09-01T13:23:15.065Z,1.83
2022-09-01T13:25:45.492Z,1.67
2022-09-01T13:28:14.306Z,1.70
2022-09-01T13:30:42.426Z,1.80
2022-09-01T13:33:22.787Z,1.85
2022-09-01T13:35:51.441Z,1.90
2022-09-01T13:38:19.591Z,1.90
2022-09-01T13:40:48.105Z,2.12
2022-09-01T13:43:17.102Z,1.90
2022-09-01T13:45:45.243Z,1.80
2022-09-01T13:48:17.250Z,1.67
2022-09-01T13:53:34.684Z,1.67
2022-09-01T13:56:02.840Z,1.90
2022-09-01T13:58:30.623Z,1.70
2022-09-01T14:01:01.107Z,1.48
2022-09-01T14:03:29.024Z,1.70
2022-09-01T14:05:56.877Z,1.60
2022-09-01T14:08:24.749Z,1.60
2022-09-01T14:10:53.377Z,1.75
2022-09-01T14:13:22.249Z,1.85
2022-09-01T14:15:50.386Z,1.52
2022-09-01T14:18:18.421Z,1.58
2022-09-01T14:20:48.063Z,1.50
2022-09-01T14:23:16.056Z,1.60
2022-09-01T14:25:48.673Z,1.85
2022-09-01T14:28:20.341Z,1.35
2022-09-01T14:30:48.817Z,1.67
2022-09-01T14:33:16.646Z,1.50
2022-09-01T14:35:46.708Z,1.67
2022-09-01T14:38:15.118Z,2.00
2022-09-01T14:40:43.366Z,1.60
2022-09-01T14:43:15.183Z,1.75
2022-09-01T14:45:45.830Z,1.75
2022-09-01T14:48:13.704Z,2.10
2022-09-01T14:50:45.463Z,1.60
2022-09-01T14:53:13.637Z,1.80
2022-09-01T14:55:44.114Z,1.70
2022-09-01T14:58:12.046Z,1.65
2022-09-01T15:00:40.214Z,1.90
2022-09-01T15:03:08.550Z,1.70
2022-09-01T15:05:40.216Z,1.50
2022-09-01T15:08:22.014Z,1.40
2022-09-01T15:10:50.264Z,1.70
2022-09-01T15:13:18.254Z,1.50
2022-09-01T15:15:46.133Z,1.55
2022-09-01T15:18:13.936Z,1.75
2022-09-01T15:20:46.405Z,1.65
2022-09-01T15:23:15.153Z,1.67
2022-09-01T15:25:43.027Z,1.80
2022-09-01T15:28:11.011Z,1.75
2022-09-01T15:30:39.459Z,1.98
2022-09-01T15:33:09.865Z,1.90
2022-09-01T15:35:41.080Z,1.90
2022-09-01T15:38:08.913Z,2.28
2022-09-01T15:40:40.783Z,1.95
2022-09-01T15:43:08.769Z,2.03
2022-09-01T15:45:36.876Z,2.22
2022-09-01T15:48:04.723Z,1.77
2022-09-01T15:50:32.651Z,2.10
2022-09-01T15:53:02.712Z,1.80
2022-09-01T15:55:41.969Z,1.92
2022-09-01T15:58:10.675Z,1.90
2022-09-01T16:00:38.521Z,2.03
2022-09-01T16:03:06.855Z,2.00
2022-09-01T16:05:36.137Z,1.85
2022-09-01T16:08:05.888Z,2.00
2022-09-01T16:10:36.556Z,1.83
2022-09-01T16:13:05.133Z,1.85
2022-09-01T16:15:33.636Z,1.87
2022-09-01T16:18:14.644Z,1.90
2022-09-01T16:20:56.421Z,1.80
2022-09-01T16:23:25.607Z,2.20
2022-09-01T16:25:54.868Z,2.05
2022-09-01T16:28:36.774Z,2.10
2022-09-01T16:31:06.580Z,2.03
2022-09-01T16:33:34.392Z,2.45
2022-09-01T16:36:09.554Z,1.90
2022-09-01T16:39:14.366Z,2.03
2022-09-01T16:41:56.269Z,1.92
2022-09-01T16:44:41.185Z,1.80
2022-09-01T16:47:17.902Z,1.80
2022-09-01T16:50:08.721Z,1.90
2022-09-01T16:52:48.688Z,1.80
2022-09-01T16:55:26.794Z,1.95
2022-09-01T16:58:17.067Z,2.28
2022-09-01T17:01:27.786Z,6.30
2022-09-01T17:03:58.347Z,2.00
2022-09-01T17:07:04.326Z,1.95
2022-09-01T17:09:57.447Z,1.83
2022-09-01T17:12:42.243Z,1.90
2022-09-01T17:15:13.844Z,1.90
2022-09-01T17:17:45.874Z,2.00
2022-09-01T17:20:15.077Z,2.58
2022-09-01T17:22:53.807Z,2.22
2022-09-01T17:25:30.019Z,2.75
2022-09-01T17:28:03.930Z,3.00
2022-09-01T17:30:33.138Z,2.62
2022-09-01T17:33:02.708Z,2.65
2022-09-01T17:36:15.997Z,2.40
2022-09-01T17:38:55.276Z,2.70
2022-09-01T17:41:46.399Z,2.83
2022-09-01T17:44:36.754Z,2.60
2022-09-01T17:47:13.108Z,2.60
2022-09-01T17:49:52.941Z,2.65
2022-09-01T17:52:38.625Z,2.75
2022-09-01T17:55:26.863Z,2.08
2022-09-01T17:58:00.009Z,2.62
2022-09-01T18:00:29.647Z,2.70
2022-09-01T18:03:20.060Z,2.47
2022-09-01T18:06:00.938Z,2.55
2022-09-01T18:08:41.242Z,2.87
2022-09-01T18:11:15.324Z,3.00
2022-09-01T18:14:17.900Z,2.53
2022-09-01T18:17:10.237Z,2.65
2022-09-01T18:19:40.874Z,2.80
2022-09-01T18:22:14.875Z,2.95
2022-09-01T18:24:59.681Z,2.45
2022-09-01T18:27:31.372Z,2.50
2022-09-01T18:30:02.389Z,2.83
2022-09-01T18:32:39.925Z,2.72
2022-09-01T18:35:12.725Z,3.15
2022-09-01T18:38:08.693Z,3.00
2022-09-01T18:41:02.687Z,3.12
2022-09-01T18:43:44.560Z,3.85
2022-09-01T18:46:15.352Z,3.22
2022-09-01T18:49:17.241Z,3.03
2022-09-01T18:52:06.644Z,3.53
2022-09-01T18:54:53.056Z,3.15
2022-09-01T18:57:22.425Z,2.53
2022-09-01T19:00:22.894Z,2.58
2022-09-01T19:03:24.226Z,3.78
2022-09-01T19:06:08.266Z,3.70
2022-09-01T19:09:15.508Z,3.30
2022-09-01T19:12:11.652Z,3.35
2022-09-01T19:14:42.175Z,3.10
2022-09-01T19:17:37.164Z,3.20
2022-09-01T19:20:16.895Z,2.92
2022-09-01T19:23:06.380Z,2.55
2022-09-01T19:25:40.012Z,2.90
2022-09-01T19:28:40.921Z,2.50
2022-09-01T19:31:58.409Z,2.70
2022-09-01T19:34:28.094Z,2.60
2022-09-01T19:36:58.106Z,2.62
2022-09-01T19:39:30.070Z,2.53
2022-09-01T19:42:14.662Z,2.40
2022-09-01T19:45:13.593Z,2.30
2022-09-01T19:47:48.978Z,2.60
2022-09-01T19:50:42.251Z,2.37
2022-09-01T19:53:26.274Z,3.33
2022-09-01T19:55:53.969Z,2.53
2022-09-01T19:58:25.711Z,3.08
2022-09-01T20:00:56.955Z,2.40
2022-09-01T20:03:35.399Z,2.47
2022-09-01T20:06:09.518Z,2.92
2022-09-01T20:08:44.938Z,3.20
2022-09-01T20:11:42.127Z,4.53
2022-09-01T20:14:22.016Z,4.45
2022-09-01T20:16:54.606Z,3.70
2022-09-01T20:19:42.407Z,2.97
2022-09-01T20:22:19.406Z,3.17
2022-09-01T20:24:48.322Z,3.00
2022-09-01T20:27:39.527Z,3.05
2022-09-01T20:30:10.111Z,3.12
2022-09-01T20:32:52.747Z,2.65
2022-09-01T20:35:24.833Z,2.30
2022-09-01T20:38:00.885Z,2.28
2022-09-01T20:40:33.709Z,2.00
2022-09-01T20:43:21.414Z,2.25
2022-09-01T20:45:51.002Z,2.15
2022-09-01T20:48:28.573Z,2.30
2022-09-01T20:50:59.278Z,2.20
2022-09-01T20:53:37.961Z,2.33
2022-09-01T20:56:43.643Z,2.30
2022-09-01T20:59:18.382Z,2.20
2022-09-01T21:02:01.028Z,2.15
2022-09-01T21:04:39.488Z,2.28
2022-09-01T21:07:22.917Z,2.53
2022-09-01T21:10:05.421Z,1.83
2022-09-01T21:12:42.377Z,2.10
2022-09-01T21:15:35.053Z,2.00
2022-09-01T21:18:21.497Z,1.90
2022-09-01T21:20:59.202Z,2.25
2022-09-01T21:23:28.922Z,2.33
2022-09-01T21:25:56.709Z,2.30
2022-09-01T21:28:27.530Z,2.03
2022-09-01T21:30:56.193Z,1.90
2022-09-01T21:33:25.301Z,1.87
2022-09-01T21:35:53.072Z,2.15
2022-09-01T21:38:20.856Z,2.08
2022-09-01T21:40:48.789Z,1.95
2022-09-01T21:43:24.867Z,1.90
2022-09-01T21:45:52.646Z,2.22
2022-09-01T21:48:20.568Z,2.22
2022-09-01T21:50:48.831Z,1.90
2022-09-01T21:53:17.185Z,2.12
2022-09-01T21:55:44.964Z,2.22
2022-09-01T21:58:12.765Z,2.20
2022-09-01T22:00:40.791Z,2.30
2022-09-01T22:03:08.945Z,1.75
2022-09-01T22:05:42.575Z,1.90
2022-09-01T22:08:13.267Z,1.98
2022-09-01T22:10:50.481Z,2.00
2022-09-01T22:13:19.132Z,1.90
2022-09-01T22:15:49.121Z,1.90
2022-09-01T22:18:17.520Z,2.20
2022-09-01T22:20:45.543Z,2.20
2022-09-01T22:23:13.757Z,1.83
2022-09-01T22:25:43.836Z,2.20
2022-09-01T22:28:11.708Z,1.70
2022-09-01T22:30:45.506Z,2.00
2022-09-01T22:33:13.917Z,2.28
2022-09-01T22:35:45.552Z,2.30
2022-09-01T22:38:13.421Z,2.08
2022-09-01T22:40:52.509Z,2.12
2022-09-01T22:43:20.648Z,2.10
2022-09-01T22:45:49.574Z,2.40
2022-09-01T22:48:18.607Z,2.00
2022-09-01T22:50:46.526Z,2.00
2022-09-01T22:53:15.615Z,2.00
2022-09-01T22:55:45.201Z,2.22
2022-09-01T22:58:13.158Z,2.50
2022-09-01T23:00:45.085Z,2.10
2022-09-01T23:03:13.066Z,2.10
2022-09-01T23:05:40.853Z,1.90
2022-09-01T23:08:08.696Z,2.20
2022-09-01T23:10:36.512Z,2.00
2022-09-01T23:13:04.253Z,1.85
2022-09-01T23:15:32.377Z,1.90
2022-09-01T23:18:00.241Z,2.10
2022-09-01T23:20:28.163Z,2.20
2022-09-01T23:22:56.018Z,1.92
2022-09-01T23:25:24.077Z,1.70
2022-09-01T23:27:51.916Z,2.10
2022-09-01T23:30:19.785Z,1.90
2022-09-01T23:32:47.552Z,2.10
2022-09-01T23:35:16.528Z,1.80
2022-09-01T23:37:44.399Z,2.30
2022-09-01T23:40:13.276Z,2.60
2022-09-01T23:42:42.514Z,2.65
2022-09-01T23:45:10.818Z,2.80
2022-09-01T23:47:38.993Z,2.83
2022-09-01T23:50:07.231Z,2.60
2022-09-01T23:52:35.706Z,2.70
2022-09-01T23:55:03.520Z,2.72
2022-09-01T23:57:31.323Z,2.60
2022-09-01T23:59:59.119Z,2.70
